Time;durP1;ratioP1;P1;durP2;ratioP2;P2;SDS_P1;SDS_P2;PMS_P1;PMS_P2;Temp;Humidity;BMP_temperature;BMP_pressure;BME280_temperature;BME280_humidity;BME280_pressure;Samples;Min_cycle;Max_cycle;Signal;HPM_P1;HPM_P2
2024/01/15 00:00:12;;;;;;;15.20;8.48;;;;;;;;;;5024053;28;20033;-81
2024/01/15 00:02:38;;;;;;;16.42;8.38;;;;;;;;;;5009084;28;20043;-82
2024/01/15 00:05:04;;;;;;;14.85;9.15;;;;;;;;;;5024007;28;20124;-82
2024/01/15 00:07:29;;;;;;;15.35;8.50;;;;;;;;;;5031753;28;20041;-83
2024/01/15 00:09:55;;;;;;;15.93;9.35;;;;;;;;;;5028560;28;20049;-82
2024/01/15 00:12:20;;;;;;;15.07;8.57;;;;;;;;;;5006823;28;20067;-82
2024/01/15 00:14:46;;;;;;;14.15;8.10;;;;;;;;;;5006497;28;20036;-81
2024/01/15 00:17:13;;;;;;;15.05;8.65;;;;;;;;;;5017965;28;20041;-83
2024/01/15 00:19:38;;;;;;;13.93;8.15;;;;;;;;;;5010584;28;20111;-83
2024/01/15 00:22:04;;;;;;;16.67;8.95;;;;;;;;;;4996521;28;20106;-83
2024/01/15 00:24:29;;;;;;;15.45;9.32;;;;;;;;;;5031197;28;20033;-83
2024/01/15 00:26:55;;;;;;;16.10;8.77;;;;;;;;;;5035866;28;20091;-83
2024/01/15 00:29:21;;;;;;;15.20;8.00;;;;;;;;;;5024520;28;20038;-83
2024/01/15 00:31:52;;;;;;;13.23;8.13;;;;;;;;;;5004282;28;20029;-82
2024/01/15 00:34:20;;;;;;;15.00;8.55;;;;;;;;;;5033049;28;20037;-82
2024/01/15 00:36:46;;;;;;;14.30;7.78;;;;;;;;;;5012635;28;20100;-82
2024/01/15 00:39:11;;;;;;;14.88;7.75;;;;;;;;;;5034161;28;20120;-82
2024/01/15 00:41:37;;;;;;;14.32;8.13;;;;;;;;;;5004214;28;20080;-82
2024/01/15 00:44:02;;;;;;;13.02;8.02;;;;;;;;;;5031170;28;20036;-83
2024/01/15 00:46:28;;;;;;;16.95;8.48;;;;;;;;;;5036109;28;20046;-82
2024/01/15 00:48:53;;;;;;;17.63;8.65;;;;;;;;;;5024268;28;20043;-82
2024/01/15 00:51:19;;;;;;;16.20;8.05;;;;;;;;;;5024135;28;20030;-83
2024/01/15 00:53:48;;;;;;;12.73;7.43;;;;;;;;;;5031004;28;20045;-82
2024/01/15 00:56:13;;;;;;;13.18;7.72;;;;;;;;;;5030333;28;20819;-82
2024/01/15 00:58:39;;;;;;;14.15;7.70;;;;;;;;;;5027354;28;20035;-82
2024/01/15 01:01:04;;;;;;;14.65;7.93;;;;;;;;;;5038128;28;20035;-81
2024/01/15 01:03:29;;;;;;;15.07;7.57;;;;;;;;;;5037363;28;20083;-82
2024/01/15 01:05:55;;;;;;;14.45;8.13;;;;;;;;;;5035235;28;20120;-82
2024/01/15 01:08:20;;;;;;;13.95;7.70;;;;;;;;;;5026792;28;20068;-81
2024/01/15 01:10:46;;;;;;;13.05;7.82;;;;;;;;;;5023350;28;20082;-82
2024/01/15 01:13:11;;;;;;;15.73;8.02;;;;;;;;;;5029292;28;20102;-82
2024/01/15 01:15:38;;;;;;;14.00;7.80;;;;;;;;;;5024188;28;20041;-82
2024/01/15 01:18:04;;;;;;;12.57;7.20;;;;;;;;;;5009406;28;20029;-82
2024/01/15 01:20:30;;;;;;;16.05;7.82;;;;;;;;;;4995783;28;20112;-83
2024/01/15 01:22:55;;;;;;;13.00;7.63;;;;;;;;;;4997458;28;20037;-82
2024/01/15 01:25:22;;;;;;;14.00;7.88;;;;;;;;;;5013311;28;20389;-83
2024/01/15 01:27:47;;;;;;;14.30;7.97;;;;;;;;;;5018008;28;20033;-83
2024/01/15 01:30:13;;;;;;;15.93;8.27;;;;;;;;;;5033711;28;20103;-83
2024/01/15 01:32:38;;;;;;;15.90;8.70;;;;;;;;;;4998994;28;20055;-83
2024/01/15 01:35:04;;;;;;;16.20;8.35;;;;;;;;;;5006311;28;20100;-83
2024/01/15 01:37:29;;;;;;;15.57;8.23;;;;;;;;;;5036520;28;20033;-83
2024/01/15 01:39:57;;;;;;;16.92;8.55;;;;;;;;;;5011293;28;20413;-82
2024/01/15 01:42:26;;;;;;;14.93;8.43;;;;;;;;;;5029568;28;20033;-81
2024/01/15 01:44:52;;;;;;;16.42;8.95;;;;;;;;;;5026955;28;20044;-83
2024/01/15 01:47:17;;;;;;;17.40;8.93;;;;;;;;;;5035442;28;20389;-82
2024/01/15 01:49:46;;;;;;;17.05;8.85;;;;;;;;;;5041026;28;20044;-83
2024/01/15 01:52:12;;;;;;;17.70;9.68;;;;;;;;;;5024569;28;20374;-82
2024/01/15 01:54:39;;;;;;;15.75;8.90;;;;;;;;;;5028479;28;20037;-83
2024/01/15 01:57:08;;;;;;;16.10;8.68;;;;;;;;;;5023606;28;20038;-83
2024/01/15 01:59:34;;;;;;;16.85;8.88;;;;;;;;;;5022622;28;20029;-82
2024/01/15 02:02:01;;;;;;;16.95;9.27;;;;;;;;;;5039522;28;20044;-83
2024/01/15 02:04:31;;;;;;;17.15;8.35;;;;;;;;;;5038075;28;20408;-82
2024/01/15 02:07:09;;;;;;;19.98;9.63;;;;;;;;;;5013058;28;20389;-82
2024/01/15 02:09:34;;;;;;;18.50;9.63;;;;;;;;;;5039514;28;20373;-83
2024/01/15 02:12:00;;;;;;;14.60;9.05;;;;;;;;;;5027765;28;20083;-83
2024/01/15 02:14:34;;;;;;;17.30;9.10;;;;;;;;;;5039809;28;20396;-82
2024/01/15 02:17:02;;;;;;;17.27;8.43;;;;;;;;;;5034706;28;20029;-82
2024/01/15 02:19:28;;;;;;;18.35;8.45;;;;;;;;;;5038907;28;20745;-83
2024/01/15 02:21:53;;;;;;;13.35;7.18;;;;;;;;;;5035861;28;20068;-83
2024/01/15 02:24:18;;;;;;;15.43;7.97;;;;;;;;;;5041551;28;20040;-82
2024/01/15 02:26:44;;;;;;;14.43;7.38;;;;;;;;;;5034630;28;20041;-82
2024/01/15 02:29:10;;;;;;;15.13;7.22;;;;;;;;;;5021007;28;20438;-83
2024/01/15 02:31:36;;;;;;;13.35;7.45;;;;;;;;;;5035080;28;20045;-82
2024/01/15 02:34:02;;;;;;;15.75;7.20;;;;;;;;;;5026427;28;20068;-82
2024/01/15 02:36:27;;;;;;;13.07;6.75;;;;;;;;;;5029860;28;20556;-82
2024/01/15 02:38:52;;;;;;;14.23;7.13;;;;;;;;;;5030765;28;20125;-83
2024/01/15 02:41:18;;;;;;;15.10;7.55;;;;;;;;;;5038878;28;20033;-82
2024/01/15 02:43:43;;;;;;;12.48;6.72;;;;;;;;;;5036179;28;20041;-83
2024/01/15 02:46:09;;;;;;;12.43;7.28;;;;;;;;;;5003886;28;20048;-82
2024/01/15 02:48:38;;;;;;;12.30;6.95;;;;;;;;;;5033511;28;20037;-83
2024/01/15 02:51:04;;;;;;;13.40;7.40;;;;;;;;;;5019354;28;20134;-83
2024/01/15 02:53:29;;;;;;;14.77;7.43;;;;;;;;;;5026441;28;20037;-81
2024/01/15 02:55:59;;;;;;;12.77;7.65;;;;;;;;;;5041534;28;20033;-83
2024/01/15 02:58:24;;;;;;;12.98;6.97;;;;;;;;;;5039311;28;20071;-82
2024/01/15 03:00:51;;;;;;;15.38;7.85;;;;;;;;;;5029321;28;20041;-83
2024/01/15 03:03:17;;;;;;;12.73;6.80;;;;;;;;;;5002232;28;20068;-83
2024/01/15 03:06:03;;;;;;;13.90;6.90;;;;;;;;;;5020018;28;20198;-83
2024/01/15 03:08:29;;;;;;;12.57;6.70;;;;;;;;;;5028597;28;20041;-83
2024/01/15 03:11:01;;;;;;;14.02;7.15;;;;;;;;;;5021632;28;20032;-83
2024/01/15 03:13:29;;;;;;;12.57;6.15;;;;;;;;;;5039964;28;20033;-82
2024/01/15 03:15:55;;;;;;;11.25;5.95;;;;;;;;;;5030663;28;20112;-83
2024/01/15 03:18:21;;;;;;;12.27;6.30;;;;;;;;;;5012345;28;20128;-82
2024/01/15 03:20:46;;;;;;;12.35;6.68;;;;;;;;;;5034754;28;20052;-82
2024/01/15 03:23:11;;;;;;;11.75;6.05;;;;;;;;;;5035467;28;20211;-82
2024/01/15 03:25:37;;;;;;;13.75;6.03;;;;;;;;;;5026164;28;20044;-82
2024/01/15 03:28:02;;;;;;;10.43;5.45;;;;;;;;;;5028944;28;20167;-82
2024/01/15 03:30:28;;;;;;;11.50;5.30;;;;;;;;;;5035232;28;20433;-82
2024/01/15 03:32:53;;;;;;;11.27;5.65;;;;;;;;;;5033731;28;20152;-81
2024/01/15 03:35:19;;;;;;;11.65;5.75;;;;;;;;;;5028405;28;20029;-82
2024/01/15 03:37:44;;;;;;;14.55;5.45;;;;;;;;;;5039156;28;20560;-82
2024/01/15 03:40:10;;;;;;;12.07;5.43;;;;;;;;;;5022427;28;20501;-84
2024/01/15 03:42:36;;;;;;;9.98;5.07;;;;;;;;;;5015713;28;20041;-84
2024/01/15 03:45:02;;;;;;;8.93;5.20;;;;;;;;;;5035766;28;20036;-84
2024/01/15 03:47:28;;;;;;;11.13;5.05;;;;;;;;;;5020664;28;20064;-82
2024/01/15 03:49:53;;;;;;;12.48;5.07;;;;;;;;;;5038774;28;20143;-83
2024/01/15 03:52:18;;;;;;;11.52;5.38;;;;;;;;;;5040332;28;20524;-83
2024/01/15 03:54:44;;;;;;;10.63;4.97;;;;;;;;;;5036206;28;20120;-82
2024/01/15 03:57:09;;;;;;;10.88;5.00;;;;;;;;;;5035030;28;20057;-82
2024/01/15 03:59:34;;;;;;;12.93;4.90;;;;;;;;;;5020805;28;20053;-82
2024/01/15 04:02:00;;;;;;;10.13;4.70;;;;;;;;;;5034949;28;20124;-83
2024/01/15 04:04:25;;;;;;;10.27;4.20;;;;;;;;;;5036217;28;20057;-83
2024/01/15 04:06:50;;;;;;;8.95;3.65;;;;;;;;;;5027626;28;20042;-83
2024/01/15 04:09:16;;;;;;;9.50;4.40;;;;;;;;;;5038505;28;20426;-82
2024/01/15 04:11:41;;;;;;;10.45;4.90;;;;;;;;;;5020004;28;20045;-82
2024/01/15 04:14:06;;;;;;;11.98;4.13;;;;;;;;;;5034408;28;20041;-82
2024/01/15 04:16:35;;;;;;;8.25;3.85;;;;;;;;;;5027060;28;20033;-82
2024/01/15 04:19:00;;;;;;;9.20;3.88;;;;;;;;;;5002374;28;20033;-82
2024/01/15 04:21:25;;;;;;;9.85;4.10;;;;;;;;;;5029721;28;20034;-82
2024/01/15 04:23:51;;;;;;;10.20;4.10;;;;;;;;;;5036647;28;20504;-82
2024/01/15 04:26:16;;;;;;;10.85;4.28;;;;;;;;;;5030844;28;20037;-83
2024/01/15 04:28:42;;;;;;;9.40;3.85;;;;;;;;;;5016030;28;20040;-82
2024/01/15 04:31:07;;;;;;;9.48;3.95;;;;;;;;;;5024673;28;20036;-83
2024/01/15 04:33:33;;;;;;;10.10;3.50;;;;;;;;;;4994964;28;20045;-82
2024/01/15 04:36:13;;;;;;;10.35;3.47;;;;;;;;;;5039300;28;20039;-82
2024/01/15 04:38:41;;;;;;;9.27;3.83;;;;;;;;;;5038650;28;20044;-83
2024/01/15 04:41:18;;;;;;;10.40;3.72;;;;;;;;;;5036784;28;20048;-82
2024/01/15 04:43:43;;;;;;;8.45;3.72;;;;;;;;;;5020134;28;21548;-84
2024/01/15 04:46:12;;;;;;;12.45;3.90;;;;;;;;;;5018449;28;20041;-84
2024/01/15 04:48:37;;;;;;;8.93;3.22;;;;;;;;;;5029893;28;20037;-84
2024/01/15 04:51:07;;;;;;;9.48;2.88;;;;;;;;;;5037967;28;20059;-83
2024/01/15 04:53:35;;;;;;;9.45;3.00;;;;;;;;;;5011328;28;20043;-84
2024/01/15 04:56:03;;;;;;;8.75;3.03;;;;;;;;;;5002234;28;20061;-83
2024/01/15 04:58:33;;;;;;;9.93;3.50;;;;;;;;;;5035383;28;20053;-83
2024/01/15 05:01:00;;;;;;;11.70;2.80;;;;;;;;;;5023375;28;20040;-84
2024/01/15 05:03:27;;;;;;;;;;;;;;;;;;5021348;28;20037;-84
2024/01/15 05:05:53;;;;;;;8.75;2.67;;;;;;;;;;5011269;28;20360;-83
2024/01/15 05:08:20;;;;;;;13.50;3.30;;;;;;;;;;5021096;28;20127;-85
2024/01/15 05:10:50;;;;;;;6.90;2.42;;;;;;;;;;5006293;28;20033;-83
2024/01/15 05:13:18;;;;;;;9.63;2.88;;;;;;;;;;5016655;28;20504;-84
2024/01/15 05:15:44;;;;;;;9.43;2.95;;;;;;;;;;5013962;28;20057;-84
2024/01/15 05:18:10;;;;;;;8.27;2.88;;;;;;;;;;5013232;28;20118;-83
2024/01/15 05:20:35;;;;;;;9.65;2.97;;;;;;;;;;5038496;28;20048;-84
2024/01/15 05:23:02;;;;;;;6.10;3.00;;;;;;;;;;5033468;28;20036;-85
2024/01/15 05:25:27;;;;;;;9.27;2.63;;;;;;;;;;5010656;28;20036;-83
2024/01/15 05:27:55;;;;;;;9.40;2.60;;;;;;;;;;5038316;28;20033;-85
2024/01/15 05:30:21;;;;;;;9.68;2.55;;;;;;;;;;5025225;28;20134;-84
2024/01/15 05:32:46;;;;;;;8.95;2.53;;;;;;;;;;5014501;28;20071;-84
2024/01/15 05:35:12;;;;;;;8.00;2.28;;;;;;;;;;5034874;28;20056;-84
2024/01/15 05:37:57;;;;;;;;;;;;;;;;;;;;;
2024/01/15 05:40:23;;;;;;;7.88;2.30;;;;;;;;;;5022858;28;20686;-82
2024/01/15 05:42:48;;;;;;;10.30;2.67;;;;;;;;;;5024824;28;20388;-83
2024/01/15 05:45:14;;;;;;;7.03;2.10;;;;;;;;;;5031094;28;20048;-83
2024/01/15 05:47:43;;;;;;;10.13;2.17;;;;;;;;;;5028149;28;20037;-82
2024/01/15 05:50:09;;;;;;;6.55;2.22;;;;;;;;;;5002715;28;20033;-83
2024/01/15 05:52:35;;;;;;;8.68;2.95;;;;;;;;;;5019003;28;20079;-81
2024/01/15 05:55:00;;;;;;;9.73;2.50;;;;;;;;;;5021193;28;20044;-81
2024/01/15 05:57:26;;;;;;;7.57;2.60;;;;;;;;;;5021676;28;20121;-81
2024/01/15 05:59:54;;;;;;;7.90;2.40;;;;;;;;;;5016884;28;20029;-81
2024/01/15 06:02:20;;;;;;;6.80;3.15;;;;;;;;;;5030930;28;20029;-83
2024/01/15 06:04:45;;;;;;;8.40;2.53;;;;;;;;;;5026837;28;20103;-82
2024/01/15 06:07:11;;;;;;;11.02;2.72;;;;;;;;;;5035640;28;20037;-83
2024/01/15 06:09:36;;;;;;;7.07;2.42;;;;;;;;;;5014860;28;20043;-80
2024/01/15 06:12:02;;;;;;;8.05;2.20;;;;;;;;;;5032978;28;20060;-81
2024/01/15 06:14:27;;;;;;;6.15;2.30;;;;;;;;;;5024023;28;20033;-83
2024/01/15 06:16:53;;;;;;;7.85;2.05;;;;;;;;;;5023407;28;20064;-81
2024/01/15 06:19:18;;;;;;;12.60;2.65;;;;;;;;;;5038018;28;20104;-82
2024/01/15 06:21:47;;;;;;;11.35;2.58;;;;;;;;;;5041169;28;20083;-82
2024/01/15 06:24:13;;;;;;;8.05;2.00;;;;;;;;;;5028423;28;20105;-81
2024/01/15 06:26:38;;;;;;;6.75;1.70;;;;;;;;;;5037671;28;20392;-83
2024/01/15 06:29:04;;;;;;;8.15;2.22;;;;;;;;;;5022955;28;20163;-82
2024/01/15 06:31:30;;;;;;;7.72;2.25;;;;;;;;;;5024378;28;20086;-82
2024/01/15 06:33:55;;;;;;;8.52;2.00;;;;;;;;;;5036139;28;20048;-81
2024/01/15 06:36:21;;;;;;;8.52;2.53;;;;;;;;;;5029627;28;20084;-82
2024/01/15 06:38:48;;;;;;;11.52;1.92;;;;;;;;;;5038298;28;20036;-82
2024/01/15 06:41:19;;;;;;;7.68;1.70;;;;;;;;;;5037792;28;20451;-82
2024/01/15 06:43:44;;;;;;;8.57;1.70;;;;;;;;;;5013420;28;20056;-83
2024/01/15 06:46:10;;;;;;;10.90;1.90;;;;;;;;;;5038979;28;20037;-82
2024/01/15 06:48:36;;;;;;;9.88;1.90;;;;;;;;;;5038017;28;20052;-82
2024/01/15 06:51:12;;;;;;;11.85;2.05;;;;;;;;;;5025743;28;20033;-82
2024/01/15 06:53:37;;;;;;;10.57;1.83;;;;;;;;;;5035688;28;20520;-82
2024/01/15 06:56:03;;;;;;;7.30;1.83;;;;;;;;;;5020832;28;20033;-82
2024/01/15 06:58:43;;;;;;;6.97;1.50;;;;;;;;;;5027809;28;20115;-82
2024/01/15 07:01:08;;;;;;;11.80;2.08;;;;;;;;;;5029694;28;20452;-82
2024/01/15 07:03:33;;;;;;;8.38;1.95;;;;;;;;;;5035593;28;20033;-82
2024/01/15 07:05:59;;;;;;;7.68;1.83;;;;;;;;;;5007067;28;20827;-83
2024/01/15 07:08:24;;;;;;;7.20;1.60;;;;;;;;;;5025776;28;20168;-83
2024/01/15 07:10:50;;;;;;;9.32;1.83;;;;;;;;;;5028065;28;20119;-82
2024/01/15 07:13:18;;;;;;;9.27;1.73;;;;;;;;;;5022185;28;20041;-82
2024/01/15 07:15:43;;;;;;;6.03;1.60;;;;;;;;;;4996025;28;20382;-82
2024/01/15 07:18:09;;;;;;;7.55;1.77;;;;;;;;;;5015527;28;20048;-82
2024/01/15 07:20:34;;;;;;;4.93;1.25;;;;;;;;;;5041827;28;20420;-82
2024/01/15 07:23:00;;;;;;;9.52;1.77;;;;;;;;;;5038410;28;20385;-82
2024/01/15 07:25:27;;;;;;;9.13;1.83;;;;;;;;;;5013786;28;20040;-82
2024/01/15 07:27:53;;;;;;;;;;;;;;;;;;5028016;28;20037;-82
2024/01/15 07:30:19;;;;;;;6.72;1.60;;;;;;;;;;5001114;28;20396;-82
2024/01/15 07:32:44;;;;;;;7.90;1.45;;;;;;;;;;5028894;28;20046;-82
2024/01/15 07:35:10;;;;;;;12.95;1.80;;;;;;;;;;5023167;28;20535;-82
2024/01/15 07:37:47;;;;;;;12.38;2.03;;;;;;;;;;5034728;28;20068;-84
2024/01/15 07:40:13;;;;;;;;;;;;;;;;;;5017845;28;20040;-82
2024/01/15 07:42:38;;;;;;;8.68;1.70;;;;;;;;;;5042439;28;20410;-83
2024/01/15 07:45:04;;;;;;;13.07;1.92;;;;;;;;;;5036679;28;20037;-84
2024/01/15 07:47:30;;;;;;;11.40;1.67;;;;;;;;;;5024254;28;20036;-82
2024/01/15 07:49:56;;;;;;;7.80;1.38;;;;;;;;;;5026146;28;20036;-82
2024/01/15 07:52:24;;;;;;;9.25;1.70;;;;;;;;;;5037023;28;20040;-83
2024/01/15 07:54:50;;;;;;;8.88;1.70;;;;;;;;;;5034025;28;20040;-83
2024/01/15 07:57:15;;;;;;;9.95;1.98;;;;;;;;;;5009474;28;20492;-83
2024/01/15 07:59:40;;;;;;;11.57;1.80;;;;;;;;;;5025545;28;20044;-83
2024/01/15 08:02:06;;;;;;;7.57;1.58;;;;;;;;;;5034938;28;20120;-82
2024/01/15 08:04:31;;;;;;;12.38;2.03;;;;;;;;;;5037225;28;20042;-83
2024/01/15 08:06:59;;;;;;;6.38;1.30;;;;;;;;;;5015879;28;20064;-82
2024/01/15 08:09:25;;;;;;;6.00;1.40;;;;;;;;;;5033637;28;20833;-82
2024/01/15 08:11:50;;;;;;;5.75;1.52;;;;;;;;;;5030773;28;20129;-80
2024/01/15 08:14:18;;;;;;;9.18;1.75;;;;;;;;;;5027350;28;20051;-81
2024/01/15 08:16:43;;;;;;;;;;;;;;;;;;5029633;28;20496;-82
2024/01/15 08:19:09;;;;;;;8.95;1.65;;;;;;;;;;5037878;28;19952;-83
2024/01/15 08:21:42;;;;;;;10.23;1.67;;;;;;;;;;5022873;28;20448;-81
2024/01/15 08:24:08;;;;;;;8.13;1.63;;;;;;;;;;5020526;28;20037;-83
2024/01/15 08:26:33;;;;;;;11.75;2.00;;;;;;;;;;5035495;28;20572;-82
2024/01/15 08:28:58;;;;;;;7.35;1.83;;;;;;;;;;5037014;28;20033;-83
2024/01/15 08:31:29;;;;;;;5.32;1.55;;;;;;;;;;5033884;28;20029;-82
2024/01/15 08:33:55;;;;;;;7.25;1.70;;;;;;;;;;5025957;28;20451;-83
2024/01/15 08:36:21;;;;;;;8.40;1.83;;;;;;;;;;5026604;28;20034;-82
2024/01/15 08:38:46;;;;;;;9.35;1.70;;;;;;;;;;5025420;28;20116;-81
2024/01/15 08:41:12;;;;;;;6.80;1.27;;;;;;;;;;5034608;28;20022;-82
2024/01/15 08:43:37;;;;;;;6.70;1.42;;;;;;;;;;5034082;28;20076;-83
2024/01/15 08:46:03;;;;;;;5.90;1.40;;;;;;;;;;5036877;28;20591;-82
2024/01/15 08:48:29;;;;;;;5.00;1.20;;;;;;;;;;5034179;28;20032;-82
2024/01/15 08:51:04;;;;;;;5.70;1.25;;;;;;;;;;5028379;28;20047;-82
2024/01/15 08:53:29;;;;;;;6.47;1.30;;;;;;;;;;5021386;28;20041;-82
2024/01/15 08:55:55;;;;;;;5.80;1.25;;;;;;;;;;5038595;28;20033;-82
2024/01/15 08:58:24;;;;;;;8.73;2.03;;;;;;;;;;5040384;28;20090;-82
2024/01/15 09:00:50;;;;;;;11.40;1.50;;;;;;;;;;5018989;28;20026;-82
2024/01/15 09:03:16;;;;;;;9.27;1.75;;;;;;;;;;5043103;28;20036;-82
2024/01/15 09:05:42;;;;;;;7.15;1.50;;;;;;;;;;5033637;28;20521;-81
2024/01/15 09:08:07;;;;;;;7.72;1.45;;;;;;;;;;5042102;28;20126;-82
2024/01/15 09:10:33;;;;;;;7.15;1.77;;;;;;;;;;5034019;28;20030;-82
2024/01/15 09:13:00;;;;;;;6.85;1.33;;;;;;;;;;5024663;28;20148;-82
2024/01/15 09:15:25;;;;;;;8.98;1.70;;;;;;;;;;5034116;28;20102;-82
2024/01/15 09:17:51;;;;;;;6.78;1.50;;;;;;;;;;5033764;28;20029;-82
2024/01/15 09:20:17;;;;;;;10.90;1.50;;;;;;;;;;5025753;28;20053;-82
2024/01/15 09:22:51;;;;;;;10.27;1.77;;;;;;;;;;5034774;28;20528;-82
2024/01/15 09:25:17;;;;;;;7.20;1.65;;;;;;;;;;5017340;28;20111;-82
2024/01/15 09:27:42;;;;;;;7.50;1.70;;;;;;;;;;5016609;28;23059;-82
2024/01/15 09:30:08;;;;;;;5.90;1.63;;;;;;;;;;5021864;28;20056;-82
2024/01/15 09:32:34;;;;;;;8.05;1.85;;;;;;;;;;5023831;28;20033;-83
2024/01/15 09:34:59;;;;;;;8.07;1.98;;;;;;;;;;5016729;28;20037;-83
2024/01/15 09:37:25;;;;;;;7.20;1.50;;;;;;;;;;5012195;28;20111;-83
2024/01/15 09:39:56;;;;;;;6.53;1.35;;;;;;;;;;5026154;28;20482;-82
2024/01/15 09:42:24;;;;;;;6.22;1.50;;;;;;;;;;5018182;28;20026;-83
2024/01/15 09:44:50;;;;;;;10.02;1.92;;;;;;;;;;5033894;28;20477;-83
2024/01/15 09:47:16;;;;;;;5.55;1.40;;;;;;;;;;5042519;28;20048;-83
2024/01/15 09:49:42;;;;;;;9.15;1.63;;;;;;;;;;5022232;28;20038;-83
2024/01/15 09:52:08;;;;;;;10.13;1.85;;;;;;;;;;5026594;28;20022;-83
2024/01/15 09:54:34;;;;;;;6.40;1.80;;;;;;;;;;5029807;28;20583;-82
2024/01/15 09:57:00;;;;;;;7.45;1.48;;;;;;;;;;5010674;28;20045;-84
2024/01/15 09:59:27;;;;;;;6.93;1.38;;;;;;;;;;5014400;28;20463;-82
2024/01/15 10:01:53;;;;;;;9.15;2.17;;;;;;;;;;5023609;28;20121;-82
2024/01/15 10:04:18;;;;;;;5.65;1.40;;;;;;;;;;5039252;28;20064;-82
2024/01/15 10:06:45;;;;;;;4.18;1.30;;;;;;;;;;5026380;28;20037;-83
2024/01/15 10:09:14;;;;;;;8.02;2.05;;;;;;;;;;5038680;28;20124;-84
2024/01/15 10:11:40;;;;;;;6.15;1.83;;;;;;;;;;5022362;28;20033;-82
2024/01/15 10:14:06;;;;;;;6.30;1.63;;;;;;;;;;5030360;28;20033;-82
2024/01/15 10:16:31;;;;;;;4.15;1.40;;;;;;;;;;5023274;28;20046;-82
2024/01/15 10:19:02;;;;;;;7.47;1.58;;;;;;;;;;5019926;28;20524;-83
2024/01/15 10:21:28;;;;;;;4.40;1.20;;;;;;;;;;5036555;28;20501;-83
2024/01/15 10:23:53;;;;;;;5.63;1.50;;;;;;;;;;5037520;28;20116;-83
2024/01/15 10:26:26;;;;;;;6.25;1.45;;;;;;;;;;5027505;28;20064;-83
2024/01/15 10:28:54;;;;;;;6.13;1.70;;;;;;;;;;5029683;28;20029;-82
2024/01/15 10:31:21;;;;;;;3.53;1.35;;;;;;;;;;5036925;28;20501;-83
2024/01/15 10:33:50;;;;;;;6.82;1.75;;;;;;;;;;5009845;28;20052;-84
2024/01/15 10:36:22;;;;;;;4.70;1.30;;;;;;;;;;5028005;28;20032;-82
2024/01/15 10:38:48;;;;;;;4.97;1.33;;;;;;;;;;5018597;28;20033;-83
2024/01/15 10:41:45;;;;;;;5.93;1.50;;;;;;;;;;5027658;28;20048;-83
2024/01/15 10:44:10;;;;;;;;;;;;;;;;;;5020089;28;20037;-83
2024/01/15 10:46:36;;;;;;;6.50;1.40;;;;;;;;;;5028827;28;19927;-83
2024/01/15 10:49:02;;;;;;;6.57;1.25;;;;;;;;;;5032555;28;20032;-83
2024/01/15 10:51:33;;;;;;;5.65;1.50;;;;;;;;;;5013596;28;20036;-82
2024/01/15 10:53:59;;;;;;;3.67;1.30;;;;;;;;;;5025065;28;20033;-84
2024/01/15 10:56:26;;;;;;;6.70;1.52;;;;;;;;;;5032963;28;20100;-84
2024/01/15 10:58:55;;;;;;;3.53;1.38;;;;;;;;;;5031114;28;21166;-82
2024/01/15 11:01:20;;;;;;;4.70;1.10;;;;;;;;;;5029219;28;20033;-82
2024/01/15 11:03:47;;;;;;;4.80;0.93;;;;;;;;;;5034798;28;20986;-83
2024/01/15 11:06:22;;;;;;;3.55;1.10;;;;;;;;;;5044563;28;20049;-82
2024/01/15 11:08:52;;;;;;;3.95;1.27;;;;;;;;;;5023182;28;20090;-81
2024/01/15 11:11:19;;;;;;;4.25;1.15;;;;;;;;;;5026812;28;20083;-83
2024/01/15 11:13:50;;;;;;;3.35;1.15;;;;;;;;;;5035225;28;20417;-82
2024/01/15 11:16:16;;;;;;;3.05;1.05;;;;;;;;;;5037020;28;20036;-82
2024/01/15 11:18:43;;;;;;;6.00;1.17;;;;;;;;;;5022653;28;20041;-82
2024/01/15 11:21:17;;;;;;;3.10;1.10;;;;;;;;;;5028879;28;20583;-83
2024/01/15 11:24:01;;;;;;;3.80;1.10;;;;;;;;;;5032419;28;20128;-82
2024/01/15 11:26:32;;;;;;;3.45;1.10;;;;;;;;;;5038721;28;20029;-82
2024/01/15 11:29:00;;;;;;;4.45;1.00;;;;;;;;;;5022095;28;20437;-82
2024/01/15 11:31:45;;;;;;;;;;;;;;;;;;5027114;28;20078;-81
2024/01/15 11:34:12;;;;;;;4.25;1.25;;;;;;;;;;4970520;28;19925;-84
2024/01/15 11:36:49;;;;;;;4.97;1.33;;;;;;;;;;5010902;28;20060;-82
2024/01/15 11:39:26;;;;;;;7.35;1.50;;;;;;;;;;5038483;28;20033;-82
2024/01/15 11:41:51;;;;;;;;;;;;;;;;;;5036742;28;20037;-82
2024/01/15 11:44:17;;;;;;;2.60;1.25;;;;;;;;;;5037262;28;20426;-82
2024/01/15 11:46:50;;;;;;;6.20;1.40;;;;;;;;;;5039337;28;20059;-82
2024/01/15 11:49:22;;;;;;;7.05;1.63;;;;;;;;;;5037973;28;20037;-82
2024/01/15 11:51:49;;;;;;;3.42;1.30;;;;;;;;;;5036441;28;20117;-82
2024/01/15 11:54:15;;;;;;;3.35;1.30;;;;;;;;;;5035538;28;20112;-82
2024/01/15 11:56:46;;;;;;;4.07;1.58;;;;;;;;;;4990748;28;20049;-81
2024/01/15 11:59:12;;;;;;;4.07;1.80;;;;;;;;;;5039706;28;20049;-82
2024/01/15 12:01:37;;;;;;;3.42;1.50;;;;;;;;;;5004654;28;20036;-83
2024/01/15 12:04:06;;;;;;;4.10;1.83;;;;;;;;;;5036418;28;20083;-83
2024/01/15 12:06:31;;;;;;;3.60;1.40;;;;;;;;;;5034140;28;20076;-82
2024/01/15 12:09:08;;;;;;;4.43;1.50;;;;;;;;;;5035155;28;20025;-83
2024/01/15 12:11:34;;;;;;;;;;;;;;;;;;5036370;28;20064;-83
2024/01/15 12:14:00;;;;;;;3.80;1.40;;;;;;;;;;5036268;28;19944;-82
2024/01/15 12:16:25;;;;;;;2.70;1.27;;;;;;;;;;5001535;28;20053;-82
2024/01/15 12:18:50;;;;;;;3.00;1.30;;;;;;;;;;5035539;28;20025;-82
2024/01/15 12:21:24;;;;;;;4.70;1.85;;;;;;;;;;5033901;28;20388;-82
2024/01/15 12:23:55;;;;;;;3.58;1.20;;;;;;;;;;4999671;28;20064;-83
2024/01/15 12:26:21;;;;;;;4.05;1.63;;;;;;;;;;5018729;28;20473;-83
2024/01/15 12:28:46;;;;;;;2.80;1.10;;;;;;;;;;5019509;28;20029;-83
2024/01/15 12:31:11;;;;;;;4.00;1.23;;;;;;;;;;5018009;28;20440;-83
2024/01/15 12:33:40;;;;;;;3.58;1.23;;;;;;;;;;5035066;28;20409;-82
2024/01/15 12:36:05;;;;;;;3.30;1.35;;;;;;;;;;5035537;28;20428;-84
2024/01/15 12:38:31;;;;;;;2.38;0.95;;;;;;;;;;5037083;28;20041;-83
2024/01/15 12:40:57;;;;;;;2.83;1.10;;;;;;;;;;5023743;28;20548;-83
2024/01/15 12:43:22;;;;;;;3.17;1.38;;;;;;;;;;5037051;28;20116;-83
2024/01/15 12:45:48;;;;;;;2.05;1.05;;;;;;;;;;5034370;28;20882;-83
2024/01/15 12:48:15;;;;;;;3.03;1.17;;;;;;;;;;5037820;28;20053;-82
2024/01/15 12:50:42;;;;;;;4.72;1.20;;;;;;;;;;5036266;28;20063;-83
2024/01/15 12:53:08;;;;;;;3.22;1.05;;;;;;;;;;5021747;28;20041;-82
2024/01/15 12:55:34;;;;;;;2.78;1.50;;;;;;;;;;4999847;28;20029;-83
2024/01/15 12:57:59;;;;;;;3.25;1.23;;;;;;;;;;5024456;28;20116;-82
2024/01/15 13:00:26;;;;;;;3.53;1.20;;;;;;;;;;5007779;28;20034;-82
2024/01/15 13:02:57;;;;;;;3.25;1.45;;;;;;;;;;5026195;28;20033;-82
2024/01/15 13:05:23;;;;;;;4.15;1.25;;;;;;;;;;5022506;28;20049;-83
2024/01/15 13:07:59;;;;;;;4.05;1.48;;;;;;;;;;4994369;28;20041;-83
2024/01/15 13:10:25;;;;;;;3.28;1.25;;;;;;;;;;5027668;28;20421;-82
2024/01/15 13:12:50;;;;;;;2.75;1.15;;;;;;;;;;5036420;28;20048;-82
2024/01/15 13:15:16;;;;;;;3.05;1.13;;;;;;;;;;5023652;28;20444;-82
2024/01/15 13:17:44;;;;;;;3.20;1.42;;;;;;;;;;5030617;28;20596;-82
2024/01/15 13:20:10;;;;;;;3.58;1.30;;;;;;;;;;5023178;28;20033;-83
2024/01/15 13:22:38;;;;;;;5.15;1.42;;;;;;;;;;5002273;28;20933;-83
2024/01/15 13:25:06;;;;;;;3.65;1.40;;;;;;;;;;5043428;28;20036;-83
2024/01/15 13:27:32;;;;;;;4.40;1.40;;;;;;;;;;5029569;28;20378;-83
2024/01/15 13:29:57;;;;;;;4.38;1.70;;;;;;;;;;5039997;28;20037;-82
2024/01/15 13:32:28;;;;;;;4.57;1.10;;;;;;;;;;5038051;28;20042;-83
2024/01/15 13:34:57;;;;;;;4.38;1.45;;;;;;;;;;5037748;28;20041;-81
2024/01/15 13:37:41;;;;;;;4.68;1.48;;;;;;;;;;5005879;28;20914;-81
2024/01/15 13:40:09;;;;;;;5.70;1.70;;;;;;;;;;5028265;28;20057;-82
2024/01/15 13:42:37;;;;;;;4.75;1.65;;;;;;;;;;4999048;28;20040;-81
2024/01/15 13:45:05;;;;;;;2.75;1.45;;;;;;;;;;5018810;28;20858;-82
2024/01/15 13:47:31;;;;;;;5.22;1.80;;;;;;;;;;5024769;28;20033;-83
2024/01/15 13:49:57;;;;;;;6.22;1.85;;;;;;;;;;5027486;28;20381;-82
2024/01/15 13:52:27;;;;;;;5.05;1.80;;;;;;;;;;5013604;28;20606;-82
2024/01/15 13:54:53;;;;;;;5.47;1.92;;;;;;;;;;5036647;28;20519;-81
2024/01/15 13:57:19;;;;;;;8.77;1.98;;;;;;;;;;5007296;28;20092;-82
2024/01/15 13:59:44;;;;;;;6.40;1.98;;;;;;;;;;5017470;28;20508;-81
2024/01/15 14:02:10;;;;;;;6.15;2.22;;;;;;;;;;5019854;28;20044;-82
2024/01/15 14:04:45;;;;;;;7.07;2.13;;;;;;;;;;5030849;28;20108;-81
2024/01/15 14:07:13;;;;;;;8.00;2.30;;;;;;;;;;5027931;28;20038;-81
2024/01/15 14:09:40;;;;;;;8.73;3.33;;;;;;;;;;5037053;28;20040;-81
2024/01/15 14:12:06;;;;;;;7.50;2.50;;;;;;;;;;5051830;28;20032;-82
2024/01/15 14:14:31;;;;;;;5.80;2.30;;;;;;;;;;5037803;28;20492;-82
2024/01/15 14:16:57;;;;;;;8.43;2.45;;;;;;;;;;5023476;28;20404;-83
2024/01/15 14:19:22;;;;;;;4.72;1.95;;;;;;;;;;5011256;28;20044;-81
2024/01/15 14:21:48;;;;;;;4.68;2.42;;;;;;;;;;5032144;28;20381;-82
2024/01/15 14:24:13;;;;;;;6.03;1.95;;;;;;;;;;5038841;28;20094;-82
2024/01/15 14:26:38;;;;;;;7.20;2.30;;;;;;;;;;5014270;28;20412;-82
2024/01/15 14:29:05;;;;;;;9.73;2.10;;;;;;;;;;5011087;28;20049;-82
2024/01/15 14:31:34;;;;;;;7.25;1.90;;;;;;;;;;5003559;28;20041;-81
2024/01/15 14:34:00;;;;;;;8.68;2.08;;;;;;;;;;5037136;28;20129;-82
2024/01/15 14:36:25;;;;;;;4.65;1.63;;;;;;;;;;5039048;28;20120;-81
2024/01/15 14:38:51;;;;;;;5.20;1.52;;;;;;;;;;5036196;28;20037;-81